Time;durP1;ratioP1;P1;durP2;ratioP2;P2;SDS_P1;SDS_P2;PMS_P1;PMS_P2;Temp;Humidity;BMP_temperature;BMP_pressure;BME280_temperature;BME280_humidity;BME280_pressure;Samples;Min_cycle;Max_cycle;Signal;HPM_P1;HPM_P2
2020/12/19 00:02:20;;;;;;;12.23;10.90;;;6.50;99.90;;;;;;5006464;28;21217;-69
2020/12/19 00:05:05;;;;;;;10.83;9.83;;;6.50;99.90;;;;;;5019452;28;20607;-69
2020/12/19 00:07:50;;;;;;;10.73;9.33;;;6.50;99.90;;;;;;5001185;28;21055;-69
2020/12/19 00:10:35;;;;;;;10.30;9.20;;;6.50;99.90;;;;;;5013081;28;20682;-67
2020/12/19 00:13:20;;;;;;;10.80;9.57;;;6.50;99.90;;;;;;5000854;28;20598;-69
2020/12/19 00:16:04;;;;;;;12.70;9.13;;;6.50;99.90;;;;;;5010550;28;20740;-68
2020/12/19 00:18:49;;;;;;;10.33;8.90;;;6.50;99.90;;;;;;5016105;28;20610;-69
2020/12/19 00:21:33;;;;;;;10.67;9.37;;;6.50;99.90;;;;;;5001372;28;20646;-69
2020/12/19 00:24:17;;;;;;;13.63;10.00;;;6.50;99.90;;;;;;5004126;28;21236;-69
2020/12/19 00:27:02;;;;;;;12.40;9.90;;;6.40;99.90;;;;;;5005583;28;21009;-69
2020/12/19 00:29:46;;;;;;;11.30;9.40;;;6.40;99.90;;;;;;4999076;28;20626;-68
2020/12/19 00:32:37;;;;;;;11.80;10.57;;;6.40;99.90;;;;;;5009074;28;20670;-69
2020/12/19 00:35:22;;;;;;;11.53;10.37;;;6.40;99.90;;;;;;4993219;28;20999;-68
2020/12/19 00:38:06;;;;;;;10.97;9.87;;;6.40;99.90;;;;;;5000896;28;20742;-69
2020/12/19 00:40:51;;;;;;;11.80;9.70;;;6.40;99.90;;;;;;5008473;28;20662;-69
2020/12/19 00:43:36;;;;;;;10.90;9.80;;;6.40;99.90;;;;;;4995464;28;20705;-71
2020/12/19 00:46:24;;;;;;;11.57;10.03;;;6.20;99.90;;;;;;5010590;28;20793;-69
2020/12/19 00:49:09;;;;;;;11.13;9.90;;;6.20;99.90;;;;;;5003683;28;20595;-68
2020/12/19 00:51:53;;;;;;;12.00;10.70;;;6.20;99.90;;;;;;4994209;28;20730;-69
2020/12/19 00:54:38;;;;;;;11.60;10.40;;;6.20;99.90;;;;;;5012787;28;20606;-69
2020/12/19 00:57:22;;;;;;;11.23;10.03;;;6.20;99.90;;;;;;5011677;28;20666;-68
2020/12/19 01:00:08;;;;;;;14.50;10.03;;;6.20;99.90;;;;;;5015487;28;20659;-69
2020/12/19 01:02:53;;;;;;;11.13;9.90;;;6.20;99.90;;;;;;5008380;28;20635;-68
2020/12/19 01:05:37;;;;;;;12.10;10.27;;;6.20;99.90;;;;;;5010959;28;20564;-68
2020/12/19 01:08:22;;;;;;;12.07;10.53;;;6.10;99.90;;;;;;5022162;28;20598;-69
2020/12/19 01:11:06;;;;;;;11.70;10.50;;;6.10;99.90;;;;;;5014595;28;20645;-69
2020/12/19 01:13:55;;;;;;;13.40;10.63;;;6.10;99.90;;;;;;5015338;28;20659;-69
2020/12/19 01:16:39;;;;;;;12.63;10.33;;;6.10;99.90;;;;;;5006983;28;21029;-69
2020/12/19 01:19:24;;;;;;;14.07;10.83;;;6.10;99.90;;;;;;4998368;28;20666;-68
2020/12/19 01:22:08;;;;;;;12.53;11.13;;;6.10;99.90;;;;;;5001808;28;20717;-68
2020/12/19 01:24:52;;;;;;;12.23;10.87;;;6.10;99.90;;;;;;5022031;28;20618;-69
2020/12/19 01:27:37;;;;;;;12.67;10.63;;;6.00;99.90;;;;;;4995183;28;20783;-68
2020/12/19 01:30:21;;;;;;;14.70;11.50;;;6.00;99.90;;;;;;5004745;28;20606;-69
2020/12/19 01:33:06;;;;;;;12.27;10.90;;;6.10;99.90;;;;;;5005743;28;21232;-68
2020/12/19 01:35:50;;;;;;;12.27;10.70;;;6.00;99.90;;;;;;5012686;28;20662;-69
2020/12/19 01:38:35;;;;;;;11.40;10.27;;;6.10;99.90;;;;;;5005618;28;20583;-69
2020/12/19 01:41:21;;;;;;;14.00;10.73;;;6.00;99.90;;;;;;5002483;28;20643;-69
2020/12/19 01:44:06;;;;;;;13.60;10.97;;;5.90;99.90;;;;;;4996586;28;20618;-69
2020/12/19 01:47:07;;;;;;;12.00;10.80;;;5.90;99.90;;;;;;5042125;28;20781;-68
2020/12/19 01:49:53;;;;;;;12.40;11.00;;;5.90;99.90;;;;;;5003377;28;20607;-69
2020/12/19 01:52:38;;;;;;;11.87;10.57;;;5.80;99.90;;;;;;5003200;28;22439;-68
2020/12/19 01:55:22;;;;;;;13.83;11.00;;;5.90;99.90;;;;;;5008734;28;20602;-68
2020/12/19 01:58:07;;;;;;;11.93;10.10;;;5.80;99.90;;;;;;5002544;28;20701;-69
2020/12/19 02:00:53;;;;;;;13.37;10.47;;;5.80;99.90;;;;;;4995092;28;20681;-69
2020/12/19 02:03:38;;;;;;;13.07;10.93;;;5.90;99.90;;;;;;5018393;28;20634;-69
2020/12/19 02:06:25;;;;;;;13.30;11.90;;;5.80;99.90;;;;;;5017407;28;20747;-69
2020/12/19 02:09:12;;;;;;;16.17;12.60;;;5.70;99.90;;;;;;5014825;28;20599;-69
2020/12/19 02:11:57;;;;;;;12.10;10.80;;;5.70;99.90;;;;;;4993374;28;20667;-69
2020/12/19 02:14:41;;;;;;;16.13;11.40;;;5.70;99.90;;;;;;5005370;28;20587;-68
2020/12/19 02:17:25;;;;;;;15.23;11.07;;;5.70;99.90;;;;;;5011964;28;20704;-69
2020/12/19 02:20:10;;;;;;;13.97;11.70;;;5.70;99.90;;;;;;5008940;28;21198;-69
2020/12/19 02:22:56;;;;;;;14.67;11.63;;;5.60;99.90;;;;;;5004406;28;20634;-69
2020/12/19 02:25:40;;;;;;;14.57;12.57;;;5.70;99.90;;;;;;5009610;28;20602;-68
2020/12/19 02:28:25;;;;;;;15.07;12.87;;;5.60;99.90;;;;;;5012938;28;20587;-69
2020/12/19 02:31:09;;;;;;;15.10;12.47;;;5.70;99.90;;;;;;5004511;28;20719;-69
2020/12/19 02:33:54;;;;;;;13.57;12.13;;;5.70;99.90;;;;;;5007189;28;20665;-69
2020/12/19 02:36:39;;;;;;;14.17;12.67;;;5.70;99.90;;;;;;5006356;28;20782;-68
2020/12/19 02:39:23;;;;;;;15.90;12.97;;;5.70;99.90;;;;;;5012482;28;20642;-68
2020/12/19 02:42:08;;;;;;;16.07;12.93;;;5.70;99.90;;;;;;5030131;28;20635;-69
2020/12/19 02:44:53;;;;;;;16.60;13.00;;;5.60;99.90;;;;;;5020630;28;20734;-68
2020/12/19 02:47:38;;;;;;;15.90;13.43;;;5.60;99.90;;;;;;5013357;28;20654;-69
2020/12/19 02:50:22;;;;;;;16.73;13.40;;;5.60;99.90;;;;;;5007842;28;21113;-68
2020/12/19 02:53:06;;;;;;;14.77;13.00;;;5.60;99.90;;;;;;5012896;28;20656;-68
2020/12/19 02:55:51;;;;;;;17.07;13.07;;;5.50;99.90;;;;;;5003326;28;20661;-69
2020/12/19 02:58:36;;;;;;;18.27;14.30;;;5.60;99.90;;;;;;4970236;22;20796;-70
2020/12/19 03:01:34;;;;;;;19.27;13.73;;;5.60;99.90;;;;;;5033969;28;20788;-70
2020/12/19 03:04:18;;;;;;;15.17;12.40;;;5.60;99.90;;;;;;5037139;28;20635;-70
2020/12/19 03:07:03;;;;;;;18.17;13.83;;;5.60;99.90;;;;;;5042169;28;21262;-70
2020/12/19 03:09:47;;;;;;;17.30;13.60;;;5.60;99.90;;;;;;5013958;28;20785;-71
2020/12/19 03:12:32;;;;;;;14.73;11.90;;;5.60;99.90;;;;;;4942886;28;20666;-70
2020/12/19 03:15:16;;;;;;;17.97;13.93;;;5.60;99.90;;;;;;4957978;28;20595;-69
2020/12/19 03:18:07;;;;;;;14.57;12.70;;;5.50;99.90;;;;;;4948094;28;20669;-71
2020/12/19 03:20:52;;;;;;;16.90;13.97;;;5.50;99.90;;;;;;4931498;28;20662;-70
2020/12/19 03:23:37;;;;;;;17.53;13.70;;;5.50;99.90;;;;;;4946099;29;20615;-69
2020/12/19 03:26:21;;;;;;;17.20;14.23;;;5.50;99.90;;;;;;4949805;28;20703;-70
2020/12/19 03:29:05;;;;;;;17.10;13.70;;;5.50;99.90;;;;;;4950202;28;20952;-70
2020/12/19 03:31:50;;;;;;;18.53;13.60;;;5.40;99.90;;;;;;4946630;28;20645;-70
2020/12/19 03:34:37;;;;;;;16.90;13.77;;;5.50;99.90;;;;;;4948616;28;21141;-70
2020/12/19 03:37:22;;;;;;;17.80;13.67;;;5.50;99.90;;;;;;4940323;28;21001;-70
2020/12/19 03:40:07;;;;;;;18.07;14.20;;;5.50;99.90;;;;;;4948559;28;20716;-70
2020/12/19 03:42:51;;;;;;;16.73;13.43;;;5.50;99.90;;;;;;4933225;28;20641;-70
2020/12/19 03:45:35;;;;;;;18.30;14.70;;;5.40;99.90;;;;;;4949525;28;20640;-70
2020/12/19 03:48:20;;;;;;;21.20;14.20;;;5.50;99.90;;;;;;4937387;29;20813;-70
2020/12/19 03:51:04;;;;;;;17.07;14.37;;;5.50;99.90;;;;;;4966288;28;21326;-70
2020/12/19 03:53:49;;;;;;;19.00;14.30;;;5.50;99.90;;;;;;4947210;28;20718;-70
2020/12/19 03:56:33;;;;;;;19.20;14.43;;;5.50;99.90;;;;;;4951456;28;21343;-70
2020/12/19 03:59:20;;;;;;;19.50;14.43;;;5.50;99.90;;;;;;4945953;28;20625;-70
2020/12/19 04:02:04;;;;;;;20.13;14.97;;;5.50;99.90;;;;;;4944908;28;21159;-70
2020/12/19 04:04:49;;;;;;;20.43;14.50;;;5.50;99.90;;;;;;4951399;28;20677;-70
2020/12/19 04:07:33;;;;;;;21.33;15.63;;;5.40;99.90;;;;;;4979468;28;21235;-71
2020/12/19 04:10:18;;;;;;;21.30;15.27;;;5.40;99.90;;;;;;4949715;29;21025;-70
2020/12/19 04:13:02;;;;;;;21.40;15.23;;;5.50;99.90;;;;;;4957559;28;20771;-70
2020/12/19 04:15:46;;;;;;;20.80;15.40;;;5.50;99.90;;;;;;4952232;28;20638;-69
2020/12/19 04:18:31;;;;;;;21.57;15.20;;;5.50;99.90;;;;;;4955033;28;20716;-70
2020/12/19 04:21:16;;;;;;;20.80;16.17;;;5.50;99.90;;;;;;4967094;28;20663;-70
2020/12/19 04:24:00;;;;;;;20.10;15.10;;;5.50;99.90;;;;;;5037748;28;20709;-71
2020/12/19 04:26:44;;;;;;;24.10;16.50;;;5.50;99.90;;;;;;5023001;28;20674;-70
2020/12/19 04:29:31;;;;;;;20.67;15.50;;;5.50;99.90;;;;;;5037587;28;20606;-70
2020/12/19 04:32:16;;;;;;;21.17;15.73;;;5.50;99.90;;;;;;4956430;28;20968;-70
2020/12/19 04:35:00;;;;;;;19.77;14.97;;;5.50;99.90;;;;;;4958900;28;20673;-70
2020/12/19 04:37:45;;;;;;;20.30;15.47;;;5.50;99.90;;;;;;4938268;29;20733;-70
2020/12/19 04:40:29;;;;;;;19.73;15.23;;;5.50;99.90;;;;;;4949421;28;20641;-71
2020/12/19 04:43:19;;;;;;;21.27;15.63;;;5.50;99.90;;;;;;4930549;29;20662;-71
2020/12/19 04:46:03;;;;;;;20.33;14.40;;;5.50;99.90;;;;;;4933289;28;20615;-70
2020/12/19 04:48:49;;;;;;;22.37;16.13;;;5.50;99.90;;;;;;4931875;28;20726;-69
2020/12/19 04:51:35;;;;;;;22.70;15.87;;;5.50;99.90;;;;;;4940100;28;20662;-70
2020/12/19 04:54:20;;;;;;;21.27;16.13;;;5.50;99.90;;;;;;4950850;28;20590;-70
2020/12/19 04:57:15;;;;;;;18.67;15.40;;;5.50;99.90;;;;;;4933167;28;21216;-70
2020/12/19 05:00:00;;;;;;;19.70;15.77;;;5.50;99.90;;;;;;4940605;28;20641;-70
2020/12/19 05:02:45;;;;;;;18.83;14.77;;;5.40;99.90;;;;;;4944819;28;20666;-70
2020/12/19 05:05:31;;;;;;;21.93;15.47;;;5.40;99.90;;;;;;4967355;28;21155;-70
2020/12/19 05:08:15;;;;;;;18.97;15.00;;;5.50;99.90;;;;;;4958443;28;20748;-69
2020/12/19 05:11:01;;;;;;;19.87;14.57;;;5.40;99.90;;;;;;4939241;28;21077;-69
2020/12/19 05:13:49;;;;;;;21.60;15.87;;;5.40;99.90;;;;;;4946568;28;20622;-70
2020/12/19 05:16:34;;;;;;;28.60;16.87;;;5.40;99.90;;;;;;4945441;28;20591;-70
2020/12/19 05:19:21;;;;;;;21.90;16.30;;;5.40;99.90;;;;;;4941924;28;20753;-70
2020/12/19 05:22:06;;;;;;;21.37;15.10;;;5.30;99.90;;;;;;4941442;28;20658;-69
2020/12/19 05:24:51;;;;;;;19.00;15.00;;;5.20;99.90;;;;;;4942424;28;20742;-70
2020/12/19 05:27:36;;;;;;;24.90;16.70;;;5.20;99.90;;;;;;4936104;28;21030;-70
2020/12/19 05:30:21;;;;;;;24.03;16.60;;;5.20;99.90;;;;;;4946070;28;20599;-70
2020/12/19 05:33:05;;;;;;;22.50;16.73;;;5.10;99.90;;;;;;4932884;28;20654;-70
2020/12/19 05:35:50;;;;;;;21.77;16.40;;;5.20;99.90;;;;;;4937430;28;20615;-71
2020/12/19 05:38:38;;;;;;;22.87;17.10;;;5.20;99.90;;;;;;4955974;28;20662;-70
2020/12/19 05:41:23;;;;;;;23.53;15.43;;;5.30;99.90;;;;;;4962979;28;21253;-70
2020/12/19 05:44:08;;;;;;;23.00;16.80;;;5.30;99.90;;;;;;5021743;28;20665;-70
2020/12/19 05:46:52;;;;;;;22.50;15.93;;;5.30;99.90;;;;;;5024220;28;21330;-70
2020/12/19 05:49:37;;;;;;;19.73;14.93;;;5.20;99.90;;;;;;5018538;28;21129;-69
2020/12/19 05:52:23;;;;;;;21.77;15.90;;;5.20;99.90;;;;;;5009771;28;20642;-71
2020/12/19 05:55:12;;;;;;;21.93;15.90;;;5.30;99.90;;;;;;5022767;28;20683;-70
2020/12/19 05:57:58;;;;;;;20.60;15.40;;;5.20;99.90;;;;;;5035571;28;20667;-70
2020/12/19 06:00:43;;;;;;;20.90;15.63;;;5.20;99.90;;;;;;5012615;28;20750;-70
2020/12/19 06:03:28;;;;;;;23.67;16.17;;;5.30;99.90;;;;;;5017654;28;20658;-69
2020/12/19 06:06:13;;;;;;;25.00;15.80;;;5.30;99.90;;;;;;5012779;28;20615;-69
2020/12/19 06:08:59;;;;;;;22.80;15.77;;;5.30;99.90;;;;;;5023697;28;20610;-70
2020/12/19 06:11:52;;;;;;;25.20;16.83;;;5.40;99.90;;;;;;5014328;28;21225;-69
2020/12/19 06:14:41;;;;;;;19.90;15.90;;;5.30;99.90;;;;;;5020969;28;20606;-69
2020/12/19 06:17:44;;;;;;;21.17;15.90;;;5.30;99.90;;;;;;5018417;28;21019;-69
2020/12/19 06:20:30;;;;;;;21.73;15.60;;;5.20;99.90;;;;;;5042536;28;20638;-69
2020/12/19 06:23:18;;;;;;;21.63;15.70;;;5.20;99.90;;;;;;5024023;28;21022;-69
2020/12/19 06:26:04;;;;;;;23.40;15.10;;;5.20;99.90;;;;;;5020697;28;20582;-71
2020/12/19 06:28:49;;;;;;;21.00;15.90;;;5.20;99.90;;;;;;5033475;28;20649;-69
2020/12/19 06:31:33;;;;;;;21.40;15.50;;;5.30;99.90;;;;;;5000279;28;20719;-70
2020/12/19 06:34:19;;;;;;;20.37;14.90;;;5.30;99.90;;;;;;4935348;28;22610;-69
2020/12/19 06:37:05;;;;;;;20.23;15.43;;;5.20;99.90;;;;;;4939990;28;20738;-69
2020/12/19 06:40:11;;;;;;;19.47;14.73;;;5.20;99.90;;;;;;4960672;28;20574;-70
2020/12/19 06:43:13;;;;;;;20.10;15.17;;;5.30;99.90;;;;;;4951486;28;20643;-70
2020/12/19 06:45:58;;;;;;;22.20;15.87;;;5.30;99.90;;;;;;4932678;28;20599;-71
2020/12/19 06:48:42;;;;;;;19.47;14.07;;;5.20;99.90;;;;;;4939581;29;20693;-70
2020/12/19 06:51:27;;;;;;;21.10;15.93;;;5.20;99.90;;;;;;4930822;28;20635;-70
2020/12/19 06:54:28;;;;;;;22.13;16.23;;;5.20;99.90;;;;;;4939498;28;20615;-71
2020/12/19 06:57:30;;;;;;;21.30;15.53;;;5.20;99.90;;;;;;4939548;28;20755;-69
2020/12/19 07:00:28;;;;;;;21.40;15.97;;;5.20;99.90;;;;;;4954545;28;20695;-70
2020/12/19 07:03:13;;;;;;;21.80;14.97;;;5.20;99.90;;;;;;4951512;28;20646;-70
2020/12/19 07:06:08;;;;;;;20.77;15.03;;;5.20;99.90;;;;;;4934758;28;20617;-69
2020/12/19 07:08:53;;;;;;;23.10;16.50;;;5.20;99.90;;;;;;4961819;28;20595;-69
2020/12/19 07:11:44;;;;;;;19.63;14.47;;;5.20;99.90;;;;;;4953224;28;20633;-70
2020/12/19 07:14:42;;;;;;;20.30;14.90;;;5.20;99.90;;;;;;4942565;28;21231;-69
2020/12/19 07:17:27;;;;;;;19.90;14.57;;;5.20;99.90;;;;;;4936825;28;20773;-70
2020/12/19 07:20:12;;;;;;;21.60;16.40;;;5.30;99.90;;;;;;4935542;28;20614;-69
2020/12/19 07:22:56;;;;;;;19.10;14.80;;;5.20;99.90;;;;;;4940533;28;20720;-71
2020/12/19 07:25:41;;;;;;;19.67;15.17;;;5.20;99.90;;;;;;4962550;28;20868;-69
2020/12/19 07:28:26;;;;;;;21.10;15.47;;;5.20;99.90;;;;;;4957102;28;20720;-70
2020/12/19 07:31:10;;;;;;;20.90;14.40;;;5.30;99.90;;;;;;4928525;28;20717;-72
2020/12/19 07:33:55;;;;;;;21.60;14.97;;;5.30;99.90;;;;;;4945456;28;20587;-70
2020/12/19 07:36:42;;;;;;;20.10;15.00;;;5.30;99.90;;;;;;4944722;28;20954;-71
2020/12/19 07:39:26;;;;;;;19.90;13.90;;;5.30;99.90;;;;;;4935806;28;20684;-70
2020/12/19 07:42:13;;;;;;;21.20;14.43;;;5.30;99.90;;;;;;4919300;28;20694;-70
2020/12/19 07:44:58;;;;;;;21.87;15.37;;;5.30;99.90;;;;;;4954186;28;20736;-71
2020/12/19 07:47:47;;;;;;;19.37;15.00;;;5.30;99.90;;;;;;4946712;28;20681;-70
2020/12/19 07:50:33;;;;;;;21.80;15.43;;;5.20;99.90;;;;;;4945523;28;20981;-69
2020/12/19 07:53:18;;;;;;;20.97;15.57;;;5.20;99.90;;;;;;4961074;28;21302;-70
2020/12/19 07:56:03;;;;;;;20.57;15.80;;;5.30;99.90;;;;;;4953729;28;20952;-71
2020/12/19 07:58:48;;;;;;;17.20;14.03;;;5.30;99.90;;;;;;4960486;28;20688;-70
2020/12/19 08:01:38;;;;;;;19.07;14.10;;;5.30;99.90;;;;;;4936784;28;21638;-70
2020/12/19 08:04:23;;;;;;;21.90;15.77;;;5.40;99.90;;;;;;4938347;28;20668;-69
2020/12/19 08:07:08;;;;;;;20.10;15.17;;;5.40;99.90;;;;;;4933379;28;20654;-70
2020/12/19 08:10:05;;;;;;;18.37;15.23;;;5.40;99.90;;;;;;4942384;28;20706;-70
2020/12/19 08:12:50;;;;;;;23.03;16.63;;;5.30;99.90;;;;;;4943085;28;21260;-69
2020/12/19 08:15:34;;;;;;;18.30;13.77;;;5.30;99.90;;;;;;4959823;28;20652;-69
2020/12/19 08:18:19;;;;;;;19.07;15.00;;;5.30;99.90;;;;;;4973594;28;20697;-70
2020/12/19 08:21:04;;;;;;;18.93;14.50;;;5.30;99.90;;;;;;4945115;28;20653;-69
2020/12/19 08:23:49;;;;;;;18.70;14.60;;;5.30;99.90;;;;;;4981856;28;20684;-70
2020/12/19 08:26:33;;;;;;;18.00;13.97;;;5.30;99.90;;;;;;4967152;28;21195;-71
2020/12/19 08:29:21;;;;;;;19.90;15.13;;;5.40;99.90;;;;;;4957852;28;20614;-69
2020/12/19 08:32:06;;;;;;;17.70;14.00;;;5.30;99.90;;;;;;4995739;28;20642;-69
2020/12/19 08:34:51;;;;;;;19.97;14.10;;;5.40;99.90;;;;;;5024901;28;20595;-70
2020/12/19 08:37:36;;;;;;;20.00;15.10;;;5.40;99.90;;;;;;5019809;28;20777;-70
2020/12/19 08:40:21;;;;;;;21.47;14.60;;;5.40;99.90;;;;;;5027764;28;20599;-70
2020/12/19 08:43:06;;;;;;;17.53;13.60;;;5.40;99.90;;;;;;5024555;28;20634;-70
2020/12/19 08:45:51;;;;;;;18.70;14.10;;;5.50;99.90;;;;;;5027559;28;20575;-70
2020/12/19 08:48:37;;;;;;;18.80;14.77;;;5.50;99.90;;;;;;5023696;28;20658;-70
2020/12/19 08:51:21;;;;;;;19.90;15.43;;;5.50;99.90;;;;;;5023098;28;20655;-70
2020/12/19 08:54:10;;;;;;;20.13;14.37;;;5.60;99.90;;;;;;5028475;28;20607;-69
2020/12/19 08:56:55;;;;;;;18.83;14.17;;;5.60;99.90;;;;;;5023609;28;20638;-70
2020/12/19 08:59:39;;;;;;;18.57;14.40;;;5.60;99.90;;;;;;5020454;23;20707;-72
2020/12/19 09:02:24;;;;;;;20.17;14.80;;;5.70;99.90;;;;;;4940577;28;20668;-68
2020/12/19 09:05:10;;;;;;;17.73;14.27;;;5.70;99.90;;;;;;4932111;28;20594;-68
2020/12/19 09:07:58;;;;;;;18.37;14.10;;;5.70;99.90;;;;;;4921820;28;20767;-70
2020/12/19 09:10:43;;;;;;;17.30;14.07;;;5.70;99.90;;;;;;4934322;28;20714;-71
2020/12/19 09:13:27;;;;;;;16.90;13.87;;;5.80;99.90;;;;;;5012587;28;20587;-74
2020/12/19 09:16:12;;;;;;;20.43;14.73;;;5.90;99.90;;;;;;4995939;28;20646;-71
2020/12/19 09:18:56;;;;;;;19.10;14.37;;;6.00;99.90;;;;;;4998698;28;20663;-72
2020/12/19 09:21:52;;;;;;;17.53;14.33;;;6.00;99.90;;;;;;4990207;28;20644;-71
2020/12/19 09:24:37;;;;;;;18.23;14.10;;;6.10;99.90;;;;;;5010508;28;20620;-70
2020/12/19 09:27:22;;;;;;;18.70;13.60;;;6.10;99.90;;;;;;4994299;28;20619;-71
2020/12/19 09:30:06;;;;;;;17.00;14.13;;;6.10;99.90;;;;;;5006469;28;20592;-73
2020/12/19 09:32:51;;;;;;;21.57;15.20;;;6.10;99.90;;;;;;5005040;28;21010;-74
2020/12/19 09:35:35;;;;;;;18.70;14.97;;;6.30;99.90;;;;;;5009452;28;20630;-73
2020/12/19 09:38:20;;;;;;;18.67;14.17;;;6.20;99.90;;;;;;4999503;28;20663;-74
2020/12/19 09:41:07;;;;;;;17.13;13.50;;;6.30;99.90;;;;;;4995781;28;21030;-74
2020/12/19 09:43:52;;;;;;;18.80;14.97;;;6.20;99.90;;;;;;5005596;28;20731;-74
2020/12/19 09:46:37;;;;;;;18.23;14.53;;;6.30;99.90;;;;;;5002032;28;20635;-74
2020/12/19 09:49:22;;;;;;;21.30;13.90;;;6.30;99.90;;;;;;5008742;28;21240;-73
2020/12/19 09:52:06;;;;;;;18.50;14.13;;;6.30;99.90;;;;;;4958471;28;20705;-73
2020/12/19 09:54:51;;;;;;;18.30;14.57;;;6.50;99.90;;;;;;4956575;28;20603;-74
2020/12/19 09:57:35;;;;;;;18.93;14.33;;;6.40;99.90;;;;;;4949650;28;20607;-73
2020/12/19 10:00:21;;;;;;;18.10;14.60;;;6.50;99.90;;;;;;4949634;28;20611;-73
2020/12/19 10:03:05;;;;;;;19.10;14.83;;;6.50;99.90;;;;;;4944362;28;20655;-68
2020/12/19 10:05:50;;;;;;;17.90;13.50;;;6.50;99.90;;;;;;4928738;28;20603;-69
2020/12/19 10:08:35;;;;;;;17.30;13.97;;;6.50;99.90;;;;;;4915202;28;21171;-68
2020/12/19 10:11:20;;;;;;;18.07;14.23;;;6.50;99.90;;;;;;4916971;28;21316;-68
2020/12/19 10:14:05;;;;;;;17.80;13.67;;;6.50;99.90;;;;;;4935111;28;20769;-68
2020/12/19 10:16:49;;;;;;;17.20;14.57;;;6.60;99.90;;;;;;4924579;28;20710;-69
2020/12/19 10:19:34;;;;;;;19.23;14.53;;;6.60;99.90;;;;;;4921205;28;20817;-67
2020/12/19 10:22:18;;;;;;;19.07;14.90;;;6.60;99.90;;;;;;4920114;28;20655;-69
2020/12/19 10:25:03;;;;;;;17.33;14.20;;;6.70;99.90;;;;;;4940121;28;20650;-68
2020/12/19 10:27:48;;;;;;;16.57;14.10;;;6.70;99.90;;;;;;4931539;28;20957;-68
2020/12/19 10:30:32;;;;;;;18.30;13.87;;;6.80;99.90;;;;;;4939470;28;20741;-68
2020/12/19 10:33:17;;;;;;;18.23;14.40;;;6.90;99.90;;;;;;4947856;28;20754;-68
2020/12/19 10:36:01;;;;;;;18.37;14.47;;;6.90;99.90;;;;;;4934794;28;20610;-68
2020/12/19 10:38:46;;;;;;;15.83;13.13;;;7.00;99.90;;;;;;4923675;28;20670;-68
2020/12/19 10:41:31;;;;;;;16.07;13.00;;;7.00;99.90;;;;;;4915258;28;20656;-69
2020/12/19 10:44:17;;;;;;;19.30;14.17;;;7.10;99.90;;;;;;4911718;28;21006;-68
2020/12/19 10:47:01;;;;;;;15.00;13.37;;;7.10;99.90;;;;;;4917916;28;20635;-70
2020/12/19 10:49:46;;;;;;;16.40;13.20;;;7.20;99.90;;;;;;4907859;28;20747;-68
2020/12/19 10:52:30;;;;;;;16.37;12.90;;;7.30;99.90;;;;;;4945961;28;20818;-69
2020/12/19 10:55:14;;;;;;;13.60;12.20;;;7.30;99.90;;;;;;4944829;28;20761;-69
2020/12/19 10:58:01;;;;;;;14.17;12.63;;;7.40;99.90;;;;;;4950224;28;20679;-69
2020/12/19 11:00:46;;;;;;;17.70;14.70;;;7.60;99.90;;;;;;4924621;28;20631;-68
2020/12/19 11:03:30;;;;;;;17.77;13.00;;;7.60;99.90;;;;;;5002002;28;20600;-68
2020/12/19 11:06:22;;;;;;;15.37;13.60;;;7.60;99.90;;;;;;5001041;28;20636;-66
2020/12/19 11:09:07;;;;;;;14.37;12.53;;;7.70;99.90;;;;;;5005252;28;20663;-66
2020/12/19 11:11:55;;;;;;;15.67;12.97;;;7.70;99.90;;;;;;4998172;28;21128;-66
2020/12/19 11:14:39;;;;;;;16.93;14.00;;;7.80;99.90;;;;;;5012528;28;20621;-68
2020/12/19 11:17:26;;;;;;;14.70;13.03;;;7.80;99.90;;;;;;4997543;28;22169;-68
2020/12/19 11:20:11;;;;;;;14.87;12.97;;;7.80;99.90;;;;;;5006821;28;20600;-68
2020/12/19 11:22:55;;;;;;;17.40;13.73;;;7.80;99.90;;;;;;4952617;28;21293;-66
2020/12/19 11:25:40;;;;;;;14.60;12.70;;;7.90;99.90;;;;;;4953221;28;20599;-68
2020/12/19 11:28:24;;;;;;;16.57;12.90;;;8.00;99.90;;;;;;4912595;28;20798;-68
2020/12/19 11:31:09;;;;;;;17.13;13.10;;;8.00;99.90;;;;;;4939422;28;20651;-68
2020/12/19 11:33:54;;;;;;;14.70;12.70;;;8.00;99.90;;;;;;4990919;28;20965;-68
2020/12/19 11:36:38;;;;;;;15.10;13.23;;;8.00;99.90;;;;;;4999395;28;20683;-68
2020/12/19 11:39:23;;;;;;;17.67;14.23;;;8.00;99.90;;;;;;5003799;28;20703;-66
2020/12/19 11:42:07;;;;;;;16.10;13.23;;;8.00;99.90;;;;;;5002100;28;20666;-68
2020/12/19 11:44:52;;;;;;;15.63;13.50;;;8.00;99.90;;;;;;5009950;28;21328;-65
2020/12/19 11:47:36;;;;;;;17.43;14.23;;;8.00;99.90;;;;;;5002197;28;20599;-65
2020/12/19 11:50:21;;;;;;;16.87;13.13;;;8.00;99.90;;;;;;4997085;28;20670;-66
2020/12/19 11:53:05;;;;;;;17.03;13.90;;;8.00;99.90;;;;;;5005340;28;20855;-66
2020/12/19 11:55:50;;;;;;;15.37;13.30;;;8.00;99.90;;;;;;5004799;28;20703;-70
2020/12/19 11:58:34;;;;;;;16.70;13.13;;;8.10;99.90;;;;;;5000916;28;21145;-65
2020/12/19 12:01:19;;;;;;;14.73;12.77;;;8.10;99.90;;;;;;4990325;28;20647;-65
2020/12/19 12:04:03;;;;;;;14.43;12.60;;;8.20;99.90;;;;;;5006857;28;20708;-65
2020/12/19 12:06:48;;;;;;;15.70;13.10;;;8.30;99.90;;;;;;5009136;28;21088;-67
2020/12/19 12:09:32;;;;;;;15.83;13.20;;;8.30;99.90;;;;;;4999520;28;21057;-68
2020/12/19 12:12:17;;;;;;;16.00;12.53;;;8.40;99.90;;;;;;4996825;28;20658;-66
2020/12/19 12:15:01;;;;;;;14.60;12.77;;;8.40;99.90;;;;;;5006931;28;21000;-66
2020/12/19 12:17:46;;;;;;;15.83;13.10;;;8.50;99.90;;;;;;4999529;28;20618;-66
2020/12/19 12:20:30;;;;;;;13.67;12.17;;;8.50;99.90;;;;;;5005118;28;20682;-65
2020/12/19 12:23:14;;;;;;;16.03;12.87;;;8.50;99.90;;;;;;4919234;28;20754;-65
2020/12/19 12:25:59;;;;;;;15.63;12.97;;;8.60;99.90;;;;;;4930672;28;20681;-66
2020/12/19 12:28:43;;;;;;;15.43;12.80;;;8.60;99.90;;;;;;4930497;28;20770;-66
2020/12/19 12:31:32;;;;;;;14.03;12.00;;;8.70;99.90;;;;;;4919267;28;21244;-65
2020/12/19 12:34:17;;;;;;;14.90;12.40;;;8.70;99.90;;;;;;4935165;28;20607;-66
2020/12/19 12:37:01;;;;;;;14.10;11.50;;;8.70;99.90;;;;;;4938733;28;20718;-66
2020/12/19 12:39:46;;;;;;;15.40;11.53;;;8.70;99.90;;;;;;4931880;28;20677;-66
2020/12/19 12:42:31;;;;;;;14.57;12.73;;;8.70;99.90;;;;;;4942867;28;20659;-66
2020/12/19 12:45:15;;;;;;;14.60;12.80;;;8.70;99.90;;;;;;4933323;28;20770;-65
2020/12/19 12:47:59;;;;;;;13.10;11.67;;;8.70;99.90;;;;;;4944260;28;20725;-66
2020/12/19 12:50:44;;;;;;;14.20;11.70;;;8.80;99.90;;;;;;4955744;28;20635;-66
2020/12/19 12:53:28;;;;;;;14.80;11.57;;;8.90;99.90;;;;;;5004543;28;20975;-66
2020/12/19 12:56:14;;;;;;;14.50;11.97;;;8.90;99.90;;;;;;5014041;28;20643;-66
2020/12/19 12:58:59;;;;;;;13.30;11.30;;;8.90;99.90;;;;;;5011122;28;20682;-66
2020/12/19 13:01:43;;;;;;;14.63;12.90;;;9.10;99.90;;;;;;5005952;28;20655;-66
2020/12/19 13:04:28;;;;;;;14.70;12.37;;;9.00;99.90;;;;;;5019267;28;20716;-65
2020/12/19 13:07:13;;;;;;;13.63;12.13;;;9.00;99.90;;;;;;5007665;28;20659;-66
2020/12/19 13:09:57;;;;;;;13.20;11.80;;;9.00;99.90;;;;;;5021019;28;20971;-66
2020/12/19 13:12:42;;;;;;;15.30;12.50;;;9.10;99.90;;;;;;5012226;28;20631;-65
2020/12/19 13:15:26;;;;;;;13.90;12.40;;;9.10;99.90;;;;;;5013148;28;20725;-66
2020/12/19 13:18:12;;;;;;;14.60;13.00;;;9.10;99.90;;;;;;5013079;28;20690;-65
2020/12/19 13:20:56;;;;;;;13.57;12.07;;;9.10;99.90;;;;;;5019465;28;20718;-65
2020/12/19 13:23:44;;;;;;;13.90;11.70;;;9.20;99.90;;;;;;5020208;28;20611;-66
2020/12/19 13:26:28;;;;;;;12.57;11.27;;;9.20;99.90;;;;;;5012296;28;20600;-65
2020/12/19 13:29:14;;;;;;;13.90;11.67;;;9.20;99.90;;;;;;5013723;28;20670;-66
2020/12/19 13:31:59;;;;;;;13.67;12.27;;;9.30;99.90;;;;;;5004435;28;20636;-66
2020/12/19 13:34:44;;;;;;;13.30;11.90;;;9.30;99.90;;;;;;4997598;28;21012;-66
2020/12/19 13:37:30;;;;;;;12.40;11.20;;;9.30;99.90;;;;;;5001327;28;20601;-66
2020/12/19 13:40:15;;;;;;;13.77;12.37;;;9.20;99.90;;;;;;4999029;28;20741;-67
2020/12/19 13:43:00;;;;;;;12.40;11.10;;;9.30;99.90;;;;;;5001668;28;21292;-67
2020/12/19 13:45:44;;;;;;;14.87;12.30;;;9.40;99.90;;;;;;5008130;28;20588;-67
2020/12/19 13:48:28;;;;;;;12.57;11.23;;;9.40;99.90;;;;;;4996043;28;21251;-66
2020/12/19 13:51:13;;;;;;;13.03;11.70;;;9.40;99.90;;;;;;5000245;28;21007;-66
2020/12/19 13:53:58;;;;;;;13.47;11.43;;;9.40;99.90;;;;;;4999017;28;20751;-66
2020/12/19 13:56:42;;;;;;;12.90;11.40;;;9.40;99.90;;;;;;5003618;28;20683;-66
2020/12/19 13:59:27;;;;;;;14.90;11.80;;;9.40;99.90;;;;;;4997238;28;20654;-67
2020/12/19 14:02:12;;;;;;;13.80;12.13;;;9.30;99.90;;;;;;5010032;28;20663;-66
2020/12/19 14:04:56;;;;;;;12.93;11.00;;;9.30;99.90;;;;;;5011151;28;20588;-71
2020/12/19 14:07:42;;;;;;;12.30;11.00;;;9.40;99.90;;;;;;5003441;28;20633;-71
2020/12/19 14:10:26;;;;;;;13.70;11.67;;;9.40;99.90;;;;;;4996186;28;20589;-70
2020/12/19 14:13:11;;;;;;;12.23;11.00;;;9.40;99.90;;;;;;4996649;28;20714;-71